Time;durP1;ratioP1;P1;durP2;ratioP2;P2;SDS_P1;SDS_P2;PMS_P1;PMS_P2;Temp;Humidity;BMP_temperature;BMP_pressure;BME280_temperature;BME280_humidity;BME280_pressure;Samples;Min_cycle;Max_cycle;Signal;HPM_P1;HPM_P2
2023/11/15 00:02:19;;;;;;;6.45;2.58;;;;;;;12.53;nan;98752.81;5007659;27;97099;-82
2023/11/15 00:04:45;;;;;;;6.78;2.70;;;;;;;12.41;nan;98741.31;5029430;27;98505;-77
2023/11/15 00:07:11;;;;;;;6.47;2.35;;;;;;;12.45;nan;98746.28;5029601;27;97875;-77
2023/11/15 00:09:36;;;;;;;7.20;2.33;;;;;;;12.40;nan;98735.22;5048042;27;97079;-78
2023/11/15 00:12:03;;;;;;;5.45;2.50;;;;;;;12.39;nan;98735.31;5035069;27;97160;-77
2023/11/15 00:14:28;;;;;;;8.00;2.75;;;;;;;12.59;nan;98765.56;5018653;27;101638;-77
2023/11/15 00:16:54;;;;;;;5.15;2.42;;;;;;;12.57;nan;98763.03;5049105;27;97880;-77
2023/11/15 00:19:22;;;;;;;5.05;2.60;;;;;;;12.53;nan;98768.59;5008721;27;97321;-77
2023/11/15 00:21:49;;;;;;;5.47;2.58;;;;;;;12.59;nan;98771.66;5049264;27;96824;-77
2023/11/15 00:24:15;;;;;;;6.18;2.50;;;;;;;12.61;nan;98767.16;5017282;27;100421;-79
2023/11/15 00:26:40;;;;;;;7.57;2.20;;;;;;;12.44;nan;98743.75;5025528;28;101057;-77
2023/11/15 00:29:06;;;;;;;5.30;2.25;;;;;;;12.58;nan;98769.16;5022845;27;96776;-77
2023/11/15 00:31:32;;;;;;;6.10;2.17;;;;;;;12.42;nan;98753.50;5030938;27;97173;-76
2023/11/15 00:33:58;;;;;;;6.43;2.03;;;;;;;12.55;nan;98780.72;5029949;27;101273;-76
2023/11/15 00:36:23;;;;;;;5.13;1.85;;;;;;;12.48;nan;98766.28;5017553;27;101207;-77
2023/11/15 00:38:51;;;;;;;6.35;2.20;;;;;;;12.52;nan;98772.19;5002825;27;96884;-77
2023/11/15 00:41:18;;;;;;;5.03;2.03;;;;;;;12.57;nan;98778.00;5027025;27;96894;-81
2023/11/15 00:43:44;;;;;;;5.60;1.85;;;;;;;12.61;nan;98779.47;5023541;27;99781;-77
2023/11/15 00:46:12;;;;;;;7.90;1.80;;;;;;;12.65;nan;98781.81;5028129;27;97958;-76
2023/11/15 00:48:41;;;;;;;5.88;2.10;;;;;;;12.62;nan;98781.16;5016994;27;97332;-76
2023/11/15 00:51:07;;;;;;;4.30;1.70;;;;;;;12.48;nan;98781.22;5044651;27;97352;-77
2023/11/15 00:53:33;;;;;;;3.78;1.42;;;;;;;12.41;nan;98765.84;5007877;27;101389;-76
2023/11/15 00:55:59;;;;;;;4.53;1.95;;;;;;;12.62;nan;98792.53;5021002;28;101119;-76
2023/11/15 00:58:30;;;;;;;5.57;1.70;;;;;;;12.50;nan;98774.06;5037982;27;97337;-81
2023/11/15 01:00:56;;;;;;;12.30;2.20;;;;;;;12.60;nan;98793.59;5024199;27;97098;-76
2023/11/15 01:03:29;;;;;;;4.13;1.55;;;;;;;12.62;nan;98792.53;5043984;27;98430;-76
2023/11/15 01:06:00;;;;;;;3.05;1.60;;;;;;;12.61;nan;98795.25;5024269;28;102596;-77
2023/11/15 01:08:25;;;;;;;5.03;2.10;;;;;;;12.46;nan;98773.44;5019033;27;97362;-77
2023/11/15 01:10:52;;;;;;;5.57;1.35;;;;;;;12.58;nan;98790.22;5029197;27;97497;-76
2023/11/15 01:13:19;;;;;;;5.13;1.83;;;;;;;12.57;nan;98784.09;5022679;27;101820;-76
2023/11/15 01:15:45;;;;;;;2.42;1.20;;;;;;;12.47;nan;98780.38;5045246;27;97677;-76
2023/11/15 01:18:11;;;;;;;3.65;1.50;;;;;;;12.48;nan;98771.56;5027975;27;96809;-77
2023/11/15 01:20:37;;;;;;;2.28;1.23;;;;;;;12.43;nan;98771.84;5021990;27;97093;-76
2023/11/15 01:23:05;;;;;;;3.55;1.30;;;;;;;12.60;nan;98796.22;5016262;27;98212;-76
2023/11/15 01:25:32;;;;;;;2.05;1.08;;;;;;;12.64;nan;98793.25;5023410;27;101438;-76
2023/11/15 01:27:58;;;;;;;1.83;1.20;;;;;;;12.62;nan;98800.44;5044221;27;96786;-76
2023/11/15 01:30:25;;;;;;;5.72;1.42;;;;;;;12.42;nan;98767.53;5007869;27;96825;-76
2023/11/15 01:32:51;;;;;;;2.75;1.10;;;;;;;12.58;nan;98787.56;5034102;27;97857;-77
2023/11/15 01:35:18;;;;;;;4.13;1.10;;;;;;;12.60;nan;98793.59;5025132;27;101026;-76
2023/11/15 01:37:50;;;;;;;3.08;1.10;;;;;;;12.63;nan;98790.75;5019505;27;97975;-76
2023/11/15 01:40:16;;;;;;;1.58;1.13;;;;;;;12.62;nan;98779.38;5033861;27;96780;-80
2023/11/15 01:42:41;;;;;;;2.90;1.10;;;;;;;12.60;nan;98791.78;5024391;27;101470;-76
2023/11/15 01:45:07;;;;;;;1.77;1.10;;;;;;;12.57;nan;98788.53;5041818;27;100847;-76
2023/11/15 01:47:33;;;;;;;3.22;1.20;;;;;;;12.48;nan;98782.09;5034397;27;96858;-76
2023/11/15 01:50:00;;;;;;;2.75;1.25;;;;;;;12.52;nan;98785.34;5044944;27;96870;-76
2023/11/15 01:52:25;;;;;;;2.25;1.27;;;;;;;12.48;nan;98781.22;5046944;27;97993;-76
2023/11/15 01:54:54;;;;;;;2.08;0.98;;;;;;;12.52;nan;98786.19;5021172;27;101346;-76
2023/11/15 01:57:20;;;;;;;1.90;0.73;;;;;;;12.39;nan;98767.75;5013476;28;97886;-76
2023/11/15 01:59:46;;;;;;;3.08;1.45;;;;;;;12.44;nan;98781.41;5019800;27;96857;-76
2023/11/15 02:02:12;;;;;;;2.38;1.27;;;;;;;12.39;nan;98764.25;5041805;27;97971;-77
2023/11/15 02:04:37;;;;;;;2.50;1.25;;;;;;;12.42;nan;98769.31;5026739;27;101288;-76
2023/11/15 02:07:03;;;;;;;2.70;1.20;;;;;;;12.35;nan;98770.66;5023125;27;96768;-76
2023/11/15 02:09:29;;;;;;;3.45;1.00;;;;;;;12.45;nan;98784.91;5037478;27;96882;-76
2023/11/15 02:11:55;;;;;;;2.63;1.10;;;;;;;12.42;nan;98777.19;5004588;27;101627;-76
2023/11/15 02:14:21;;;;;;;2.95;1.15;;;;;;;12.40;nan;98787.84;5020098;27;101815;-77
2023/11/15 02:16:47;;;;;;;2.97;1.20;;;;;;;12.26;nan;98760.75;5020271;27;97473;-80
2023/11/15 02:19:15;;;;;;;4.28;1.85;;;;;;;12.40;nan;98782.56;5021551;27;97788;-77
2023/11/15 02:21:41;;;;;;;2.15;1.08;;;;;;;12.40;nan;98773.84;5028687;27;101648;-77
2023/11/15 02:24:08;;;;;;;3.58;1.00;;;;;;;12.36;nan;98782.88;5027875;27;100397;-76
2023/11/15 02:26:33;;;;;;;2.13;0.90;;;;;;;12.33;nan;98776.00;5039222;27;97128;-77
2023/11/15 02:29:00;;;;;;;1.92;1.00;;;;;;;12.29;nan;98760.56;5006216;27;97059;-76
2023/11/15 02:31:25;;;;;;;2.40;0.90;;;;;;;12.26;nan;98752.84;5054410;27;98038;-76
2023/11/15 02:33:51;;;;;;;2.28;1.15;;;;;;;12.42;nan;98780.69;5002879;27;100740;-77
2023/11/15 02:36:17;;;;;;;1.63;0.90;;;;;;;12.40;nan;98779.94;5025138;27;96821;-77
2023/11/15 02:38:42;;;;;;;1.15;0.70;;;;;;;12.37;nan;98776.69;5046003;27;96822;-77
2023/11/15 02:41:09;;;;;;;2.13;1.08;;;;;;;12.14;nan;98744.81;5018299;27;101004;-77
2023/11/15 02:43:35;;;;;;;1.80;1.00;;;;;;;12.27;nan;98773.78;5042381;27;98376;-77
2023/11/15 02:46:02;;;;;;;2.35;1.05;;;;;;;12.29;nan;98774.53;5018654;27;97083;-77
2023/11/15 02:48:27;;;;;;;6.20;1.00;;;;;;;12.34;nan;98774.25;5006572;27;96812;-76
2023/11/15 02:50:53;;;;;;;1.17;0.60;;;;;;;12.21;nan;98747.88;5020551;27;101119;-76
2023/11/15 02:53:19;;;;;;;1.92;1.00;;;;;;;12.26;nan;98766.84;5017080;27;97635;-77
2023/11/15 02:55:46;;;;;;;1.67;0.93;;;;;;;12.29;nan;98765.81;5032824;27;96716;-76
2023/11/15 02:58:12;;;;;;;1.88;0.98;;;;;;;12.25;nan;98773.06;5019542;27;96918;-77
2023/11/15 03:00:38;;;;;;;2.47;1.23;;;;;;;12.14;nan;98751.88;5007155;27;101421;-77
2023/11/15 03:03:04;;;;;;;2.50;1.15;;;;;;;12.24;nan;98779.25;5006353;27;101383;-77
2023/11/15 03:05:31;;;;;;;1.02;0.80;;;;;;;12.28;nan;98775.50;5027497;27;96788;-79
2023/11/15 03:07:57;;;;;;;1.98;1.13;;;;;;;12.26;nan;98773.91;5038065;27;97313;-77
2023/11/15 03:10:23;;;;;;;2.92;1.50;;;;;;;12.13;nan;98750.16;5018640;27;100983;-76
2023/11/15 03:12:49;;;;;;;2.47;1.00;;;;;;;12.30;nan;98776.22;5024715;27;101477;-77
2023/11/15 03:15:15;;;;;;;1.65;1.00;;;;;;;12.03;nan;98734.16;5027098;27;96876;-77
2023/11/15 03:17:41;;;;;;;2.05;0.93;;;;;;;12.22;nan;98782.00;5023833;27;96946;-76
2023/11/15 03:20:09;;;;;;;3.53;0.90;;;;;;;12.21;nan;98785.56;5018413;27;101127;-80
2023/11/15 03:22:35;;;;;;;2.05;1.27;;;;;;;12.20;nan;98781.25;5025249;27;97911;-76
2023/11/15 03:25:01;;;;;;;8.65;1.55;;;;;;;12.23;nan;98791.56;5009446;27;96808;-76
2023/11/15 03:27:26;;;;;;;4.00;1.02;;;;;;;12.07;nan;98767.22;5029556;27;97176;-77
2023/11/15 03:29:52;;;;;;;4.05;1.10;;;;;;;12.02;nan;98763.19;5014046;27;101325;-76
2023/11/15 03:32:18;;;;;;;6.10;1.98;;;;;;;12.11;nan;98773.97;5018388;27;101428;-76
2023/11/15 03:34:43;;;;;;;2.55;1.40;;;;;;;12.16;nan;98798.19;5027340;27;96741;-76
2023/11/15 03:37:10;;;;;;;2.20;1.17;;;;;;;12.13;nan;98789.63;5031316;27;96883;-76
2023/11/15 03:39:37;;;;;;;3.50;1.30;;;;;;;12.14;nan;98791.34;5061916;27;98407;-76
2023/11/15 03:42:04;;;;;;;4.40;2.00;;;;;;;12.19;nan;98805.88;5033558;27;97917;-76
2023/11/15 03:44:29;;;;;;;8.95;2.50;;;;;;;12.17;nan;98805.13;5021481;27;96849;-76
2023/11/15 03:46:55;;;;;;;5.22;2.30;;;;;;;12.13;nan;98797.50;5024705;27;96950;-76
2023/11/15 03:49:21;;;;;;;10.13;3.45;;;;;;;12.18;nan;98801.53;5061547;27;98051;-76
2023/11/15 03:51:46;;;;;;;6.80;3.40;;;;;;;12.17;nan;98810.38;5024253;27;101484;-76
2023/11/15 03:54:12;;;;;;;8.38;3.22;;;;;;;12.16;nan;98805.25;5018676;27;97276;-77
2023/11/15 03:56:37;;;;;;;4.97;3.05;;;;;;;12.10;nan;98816.13;5027292;27;97258;-76
2023/11/15 03:59:05;;;;;;;4.35;2.60;;;;;;;12.12;nan;98814.25;5056931;27;98087;-76
2023/11/15 04:01:32;;;;;;;4.20;2.65;;;;;;;11.94;nan;98797.88;5003972;27;101481;-76
2023/11/15 04:03:57;;;;;;;3.17;1.90;;;;;;;11.95;nan;98795.13;5019726;27;96853;-76
2023/11/15 04:06:23;;;;;;;4.85;1.90;;;;;;;11.95;nan;98794.28;5024783;27;96862;-76
2023/11/15 04:08:49;;;;;;;5.45;1.92;;;;;;;11.97;nan;98800.28;5022125;27;98421;-76
2023/11/15 04:11:15;;;;;;;4.32;1.45;;;;;;;12.11;nan;98818.66;5016419;27;97879;-76
2023/11/15 04:13:42;;;;;;;7.72;1.98;;;;;;;12.12;nan;98825.59;5034151;27;97171;-76
2023/11/15 04:16:08;;;;;;;2.95;1.40;;;;;;;12.17;nan;98825.31;5053644;27;97322;-76
2023/11/15 04:18:35;;;;;;;3.38;1.25;;;;;;;12.12;nan;98824.78;5021777;27;101300;-76
2023/11/15 04:21:01;;;;;;;2.88;1.27;;;;;;;12.09;nan;98825.81;5052743;27;97384;-76
2023/11/15 04:23:26;;;;;;;4.57;1.40;;;;;;;12.08;nan;98826.75;5045505;27;97143;-76
2023/11/15 04:25:52;;;;;;;2.78;1.35;;;;;;;12.18;nan;98838.38;5031123;27;97208;-78
2023/11/15 04:28:19;;;;;;;3.30;1.40;;;;;;;12.11;nan;98812.56;5001230;27;100745;-76
2023/11/15 04:30:45;;;;;;;2.33;1.50;;;;;;;12.16;nan;98832.38;5015968;27;98243;-76
2023/11/15 04:33:11;;;;;;;4.05;1.92;;;;;;;12.18;nan;98838.38;5031670;27;96888;-76
2023/11/15 04:35:36;;;;;;;2.97;1.55;;;;;;;12.14;nan;98839.50;5021988;27;97377;-77
2023/11/15 04:38:05;;;;;;;3.35;1.23;;;;;;;12.05;nan;98826.13;5017956;27;102025;-77
2023/11/15 04:40:31;;;;;;;3.38;1.27;;;;;;;12.07;nan;98829.47;5026794;27;101305;-76
2023/11/15 04:42:56;;;;;;;4.63;0.90;;;;;;;12.18;nan;98843.63;5023708;27;97098;-76
2023/11/15 04:45:22;;;;;;;3.33;1.27;;;;;;;12.16;nan;98847.31;5031192;27;97161;-76
2023/11/15 04:47:47;;;;;;;3.65;1.20;;;;;;;12.21;nan;98848.69;5021475;28;98035;-78
2023/11/15 04:50:13;;;;;;;3.83;1.40;;;;;;;12.18;nan;98856.78;5007550;27;100791;-77
2023/11/15 04:52:39;;;;;;;2.97;1.23;;;;;;;12.17;nan;98854.25;5013017;27;96871;-76
2023/11/15 04:55:05;;;;;;;1.38;1.00;;;;;;;12.16;nan;98863.09;5010797;27;96915;-77
2023/11/15 04:57:30;;;;;;;5.85;1.38;;;;;;;12.17;nan;98860.38;5028764;27;97881;-77
2023/11/15 04:59:56;;;;;;;2.92;1.40;;;;;;;12.14;nan;98865.81;5014694;27;101422;-77
2023/11/15 05:02:22;;;;;;;1.77;1.00;;;;;;;12.16;nan;98865.75;5054823;27;96633;-77
2023/11/15 05:04:48;;;;;;;1.42;0.82;;;;;;;12.12;nan;98865.06;5031872;27;96807;-77
2023/11/15 05:07:14;;;;;;;1.98;1.00;;;;;;;12.12;nan;98880.00;5021117;27;97636;-76
2023/11/15 05:09:40;;;;;;;1.45;0.90;;;;;;;12.12;nan;98874.75;5049755;27;97866;-77
2023/11/15 05:12:07;;;;;;;4.72;1.42;;;;;;;11.95;nan;98871.38;5023526;27;97303;-77
2023/11/15 05:14:33;;;;;;;2.30;1.17;;;;;;;12.19;nan;98890.06;5021218;27;96993;-79
2023/11/15 05:16:58;;;;;;;2.20;1.30;;;;;;;12.08;nan;98889.03;5050808;27;97926;-77
2023/11/15 05:19:23;;;;;;;2.95;1.33;;;;;;;12.11;nan;98905.47;5029103;27;100957;-77
2023/11/15 05:21:49;;;;;;;1.67;1.00;;;;;;;11.99;nan;98891.31;5030084;27;96760;-77
2023/11/15 05:24:14;;;;;;;1.17;0.98;;;;;;;11.98;nan;98892.25;5029475;27;96890;-77
2023/11/15 05:26:40;;;;;;;1.55;1.25;;;;;;;12.04;nan;98901.53;5031769;27;101117;-76
2023/11/15 05:29:05;;;;;;;3.63;2.30;;;;;;;12.06;nan;98906.69;5047994;27;97511;-76
2023/11/15 05:31:31;;;;;;;6.10;3.88;;;;;;;12.09;nan;98911.75;5016997;27;97270;-78
2023/11/15 05:33:57;;;;;;;5.82;3.05;;;;;;;12.06;nan;98912.78;5023430;27;97064;-77
2023/11/15 05:36:22;;;;;;;2.17;1.50;;;;;;;11.96;nan;98899.38;5018318;28;101663;-76
2023/11/15 05:38:48;;;;;;;3.38;1.75;;;;;;;12.06;nan;98919.84;5032981;27;97525;-79
2023/11/15 05:41:14;;;;;;;3.60;1.33;;;;;;;12.09;nan;98930.19;5015519;28;97205;-77
2023/11/15 05:43:41;;;;;;;3.25;1.58;;;;;;;12.06;nan;98931.22;5027761;27;96869;-77
2023/11/15 05:46:06;;;;;;;1.17;1.08;;;;;;;12.07;nan;98938.19;5016079;27;99674;-76
2023/11/15 05:48:33;;;;;;;1.90;1.20;;;;;;;11.94;nan;98932.81;5047679;27;97953;-77
2023/11/15 05:51:02;;;;;;;1.50;1.10;;;;;;;11.92;nan;98921.53;5017561;27;96854;-77
2023/11/15 05:53:28;;;;;;;1.90;1.05;;;;;;;11.85;nan;98924.63;5040679;27;96779;-79
2023/11/15 05:55:53;;;;;;;2.08;1.30;;;;;;;11.99;nan;98946.53;5020614;27;97387;-77
2023/11/15 05:58:19;;;;;;;2.85;1.75;;;;;;;11.93;nan;98940.81;5006317;27;101113;-75
2023/11/15 06:00:45;;;;;;;4.28;2.15;;;;;;;12.00;nan;98950.00;5020345;28;97738;-76
2023/11/15 06:03:10;;;;;;;3.92;1.92;;;;;;;11.95;nan;98958.16;5018097;27;96795;-78
2023/11/15 06:05:36;;;;;;;4.03;2.30;;;;;;;12.01;nan;98959.56;5026101;27;101294;-76
2023/11/15 06:08:01;;;;;;;3.20;1.65;;;;;;;11.79;nan;98929.31;5012709;27;102038;-88
2023/11/15 06:10:27;;;;;;;4.50;1.48;;;;;;;11.81;nan;98945.00;5035608;27;97397;-77
2023/11/15 06:12:56;;;;;;;3.58;1.42;;;;;;;12.07;nan;98968.88;5023609;27;96841;-78
2023/11/15 06:15:22;;;;;;;2.80;1.30;;;;;;;11.77;nan;98936.44;5031730;27;97902;-79
2023/11/15 06:17:51;;;;;;;5.47;1.25;;;;;;;12.04;nan;98974.31;5025147;27;100652;-79
2023/11/15 06:20:17;;;;;;;1.77;1.20;;;;;;;12.05;nan;98978.66;5034771;27;97232;-79
2023/11/15 06:22:43;;;;;;;2.03;1.33;;;;;;;11.96;nan;98980.06;5047058;27;96859;-79
2023/11/15 06:25:09;;;;;;;3.33;1.50;;;;;;;12.03;nan;98991.06;5043720;27;99290;-81
2023/11/15 06:27:38;;;;;;;4.38;1.38;;;;;;;12.06;nan;98996.13;5005194;27;97530;-79
2023/11/15 06:30:08;;;;;;;2.83;1.65;;;;;;;12.03;nan;98998.94;5032742;27;96732;-79
2023/11/15 06:32:34;;;;;;;2.90;1.40;;;;;;;12.02;nan;99000.72;5029472;27;96868;-82
2023/11/15 06:35:00;;;;;;;3.63;1.40;;;;;;;12.09;nan;99009.94;5031408;27;97357;-80
2023/11/15 06:37:25;;;;;;;6.28;1.42;;;;;;;12.12;nan;99016.78;5046594;27;97443;-80
2023/11/15 06:39:52;;;;;;;2.70;1.33;;;;;;;11.97;nan;99008.03;5014516;27;96737;-78
2023/11/15 06:42:21;;;;;;;1.90;1.30;;;;;;;12.01;nan;99020.06;5026730;27;96825;-76
2023/11/15 06:44:47;;;;;;;3.40;1.00;;;;;;;12.01;nan;99022.69;5008977;27;97511;-74
2023/11/15 06:47:14;;;;;;;1.83;1.15;;;;;;;12.05;nan;99026.00;5016650;28;97373;-74
2023/11/15 06:49:41;;;;;;;2.78;1.40;;;;;;;12.04;nan;99037.44;5007336;27;97188;-76
2023/11/15 06:52:07;;;;;;;1.02;0.90;;;;;;;12.08;nan;99038.97;5033914;27;97007;-74
2023/11/15 06:54:33;;;;;;;3.17;1.45;;;;;;;12.07;nan;99045.16;4998387;28;97417;-73
2023/11/15 06:56:58;;;;;;;2.13;1.30;;;;;;;12.00;nan;99028.91;5018845;27;97906;-73
2023/11/15 06:59:25;;;;;;;3.45;1.30;;;;;;;12.09;nan;99053.81;5032274;27;96700;-74
2023/11/15 07:01:52;;;;;;;4.13;1.40;;;;;;;12.02;nan;99063.00;5036433;27;96803;-74
2023/11/15 07:04:19;;;;;;;6.28;1.20;;;;;;;12.03;nan;99057.66;5016499;28;97484;-73
2023/11/15 07:06:48;;;;;;;5.40;1.25;;;;;;;11.90;nan;99028.63;5025010;27;97347;-75
2023/11/15 07:09:20;;;;;;;1.25;1.00;;;;;;;12.09;nan;99078.31;5028082;27;96917;-75
2023/11/15 07:11:46;;;;;;;2.63;1.38;;;;;;;12.01;nan;99072.66;5016053;27;96829;-74
2023/11/15 07:14:15;;;;;;;2.60;1.42;;;;;;;12.03;nan;99062.06;5024282;27;98402;-78
2023/11/15 07:16:55;;;;;;;3.42;1.20;;;;;;;12.01;nan;99067.41;5042224;27;97288;-72
2023/11/15 07:19:22;;;;;;;2.45;1.33;;;;;;;11.98;nan;99068.47;5025396;27;96884;-79
2023/11/15 07:21:47;;;;;;;3.13;1.70;;;;;;;12.09;nan;99090.63;5034694;27;97373;-79
2023/11/15 07:24:13;;;;;;;1.52;1.10;;;;;;;12.11;nan;99097.50;5047981;27;97754;-79
2023/11/15 07:26:38;;;;;;;2.08;1.40;;;;;;;11.92;nan;99091.63;5008854;28;97510;-79
2023/11/15 07:29:09;;;;;;;2.63;1.40;;;;;;;11.99;nan;99098.22;5016693;27;96770;-81
2023/11/15 07:31:35;;;;;;;4.95;1.65;;;;;;;12.13;nan;99111.41;4998770;28;96764;-84
2023/11/15 07:34:05;;;;;;;4.95;1.95;;;;;;;12.17;nan;99120.78;5001149;27;98248;-76
2023/11/15 07:36:33;;;;;;;5.05;1.60;;;;;;;12.18;nan;99127.75;5034275;27;97350;-75
2023/11/15 07:39:04;;;;;;;5.55;1.95;;;;;;;12.17;nan;99123.44;5053231;27;96735;-74
2023/11/15 07:41:31;;;;;;;2.60;1.40;;;;;;;12.13;nan;99134.22;5022289;27;96833;-75
2023/11/15 07:43:58;;;;;;;3.65;1.42;;;;;;;12.07;nan;99116.16;5051507;27;97436;-75
2023/11/15 07:46:24;;;;;;;1.30;1.20;;;;;;;12.09;nan;99125.66;5035331;27;97355;-80
2023/11/15 07:48:50;;;;;;;2.50;1.48;;;;;;;12.00;nan;99121.78;5041796;27;96751;-77
2023/11/15 07:51:18;;;;;;;3.53;1.48;;;;;;;12.05;nan;99118.91;5018696;28;96925;-74
2023/11/15 07:53:45;;;;;;;4.20;1.40;;;;;;;12.21;nan;99135.44;5019482;27;97692;-75
2023/11/15 07:56:10;;;;;;;3.47;1.30;;;;;;;12.20;nan;99130.28;5016650;27;97290;-74
2023/11/15 07:58:36;;;;;;;3.30;1.10;;;;;;;12.32;nan;99153.25;5039769;27;97252;-73
2023/11/15 08:01:01;;;;;;;2.17;1.23;;;;;;;12.39;nan;99154.59;5037560;27;97190;-82
2023/11/15 08:03:28;;;;;;;2.75;1.30;;;;;;;12.40;nan;99158.06;5048365;27;98639;-78
2023/11/15 08:05:55;;;;;;;3.60;1.25;;;;;;;12.37;nan;99159.06;5033834;27;97371;-78
2023/11/15 08:08:23;;;;;;;1.70;1.02;;;;;;;12.39;nan;99166.88;5015137;27;96917;-84
2023/11/15 08:10:50;;;;;;;6.78;1.20;;;;;;;12.47;nan;99169.88;5032392;27;97714;-77
2023/11/15 08:13:19;;;;;;;2.47;1.50;;;;;;;12.43;nan;99176.28;5017416;27;101029;-79
2023/11/15 08:15:48;;;;;;;3.70;1.23;;;;;;;12.40;nan;99181.75;5017949;27;101184;-85
2023/11/15 08:18:14;;;;;;;2.45;1.23;;;;;;;12.36;nan;99174.94;5019606;27;96832;-77
2023/11/15 08:20:45;;;;;;;2.05;1.10;;;;;;;12.43;nan;99184.19;5025836;27;96997;-88
2023/11/15 08:23:12;;;;;;;3.58;1.40;;;;;;;12.41;nan;99192.16;5002499;27;101426;-78
2023/11/15 08:25:41;;;;;;;5.55;1.83;;;;;;;12.40;nan;99187.84;5024293;27;101168;-83
2023/11/15 08:28:07;;;;;;;2.83;1.10;;;;;;;12.49;nan;99209.28;4990992;27;97029;-75
2023/11/15 08:30:33;;;;;;;6.00;1.33;;;;;;;12.51;nan;99203.00;5009434;27;96790;-76
2023/11/15 08:32:59;;;;;;;2.92;1.17;;;;;;;12.39;nan;99203.72;5017677;28;97946;-75
2023/11/15 08:35:26;;;;;;;4.50;1.40;;;;;;;12.49;nan;99209.28;5037609;27;97952;-75
2023/11/15 08:37:54;;;;;;;6.00;1.65;;;;;;;12.52;nan;99217.84;5026777;27;96774;-75
2023/11/15 08:40:22;;;;;;;3.17;1.17;;;;;;;12.53;nan;99206.38;5064212;27;96928;-78
2023/11/15 08:42:49;;;;;;;3.40;1.30;;;;;;;12.36;nan;99196.00;5035755;27;101543;-75
2023/11/15 08:45:15;;;;;;;3.03;1.27;;;;;;;12.49;nan;99193.50;5035541;27;101272;-74
2023/11/15 08:47:41;;;;;;;6.00;1.77;;;;;;;12.51;nan;99208.28;5073028;27;96711;-74
2023/11/15 08:50:09;;;;;;;2.03;1.08;;;;;;;12.60;nan;99225.31;5037747;27;96796;-74
2023/11/15 08:52:36;;;;;;;8.25;1.45;;;;;;;12.61;nan;99230.47;5045164;27;97474;-75
2023/11/15 08:55:02;;;;;;;2.10;1.35;;;;;;;12.67;nan;99232.72;5031791;27;98686;-76
2023/11/15 08:57:30;;;;;;;2.88;1.20;;;;;;;12.60;nan;99241.09;5020662;27;96731;-75
2023/11/15 08:59:55;;;;;;;6.43;1.80;;;;;;;12.45;nan;99245.50;5057766;27;96806;-75
2023/11/15 09:02:23;;;;;;;1.45;0.90;;;;;;;12.56;nan;99248.31;5031478;27;97999;-75
2023/11/15 09:04:50;;;;;;;3.60;1.20;;;;;;;12.57;nan;99246.53;5023856;27;101252;-75
2023/11/15 09:07:19;;;;;;;2.13;1.20;;;;;;;12.63;nan;99254.91;5035819;27;96910;-75
2023/11/15 09:09:48;;;;;;;2.55;1.42;;;;;;;12.64;nan;99239.97;5044990;27;96854;-75
2023/11/15 09:12:16;;;;;;;4.68;1.27;;;;;;;12.78;nan;99255.78;5058751;27;97681;-74
2023/11/15 09:14:41;;;;;;;2.75;1.23;;;;;;;12.79;nan;99239.03;5036060;27;97421;-74
2023/11/15 09:17:12;;;;;;;2.63;1.00;;;;;;;12.72;nan;99237.72;5045818;27;97015;-74
2023/11/15 09:19:46;;;;;;;1.15;0.80;;;;;;;12.83;nan;99264.25;5027277;28;96997;-74
2023/11/15 09:22:13;;;;;;;1.20;0.90;;;;;;;12.80;nan;99264.44;5058369;27;97785;-74
2023/11/15 09:24:40;;;;;;;2.97;1.20;;;;;;;12.75;nan;99258.59;5033391;27;97371;-75
2023/11/15 09:27:06;;;;;;;3.97;1.00;;;;;;;12.79;nan;99267.16;5018647;27;96777;-81
2023/11/15 09:29:31;;;;;;;2.25;1.27;;;;;;;12.68;nan;99252.00;5009118;27;96806;-75
2023/11/15 09:31:57;;;;;;;2.47;1.27;;;;;;;12.72;nan;99268.47;5035397;27;97543;-78
2023/11/15 09:34:24;;;;;;;9.13;2.10;;;;;;;12.75;nan;99271.78;5015733;27;101679;-75
2023/11/15 09:36:50;;;;;;;1.67;1.30;;;;;;;12.59;nan;99244.66;5013063;27;97202;-75
2023/11/15 09:39:16;;;;;;;2.72;1.00;;;;;;;12.67;nan;99272.22;5035903;27;96909;-80
2023/11/15 09:41:53;;;;;;;1.95;1.20;;;;;;;12.83;nan;99268.69;5028762;27;98824;-78
2023/11/15 09:44:25;;;;;;;2.45;1.10;;;;;;;13.10;nan;99279.34;5025436;27;100965;-75
2023/11/15 09:46:57;;;;;;;3.30;1.25;;;;;;;12.99;nan;99279.13;5032792;27;97475;-75
2023/11/15 09:49:24;;;;;;;3.97;1.10;;;;;;;12.91;nan;99272.56;5036538;27;96749;-75
2023/11/15 09:51:51;;;;;;;2.72;1.30;;;;;;;12.91;nan;99279.59;5034821;27;97199;-75
2023/11/15 09:54:20;;;;;;;1.65;1.02;;;;;;;12.91;nan;99292.75;5053385;27;97482;-78
2023/11/15 09:56:45;;;;;;;3.90;1.10;;;;;;;12.76;nan;99293.69;5038204;27;97463;-74
2023/11/15 09:59:11;;;;;;;1.08;0.90;;;;;;;12.83;nan;99290.59;5018734;27;97431;-76
2023/11/15 10:01:43;;;;;;;1.13;0.90;;;;;;;12.84;nan;99292.28;5031185;27;97484;-75
2023/11/15 10:04:20;;;;;;;1.98;0.90;;;;;;;12.63;nan;99286.50;5017148;28;97433;-74
2023/11/15 10:06:45;;;;;;;1.60;0.90;;;;;;;12.60;nan;99283.22;5038671;27;96774;-74
2023/11/15 10:09:11;;;;;;;2.30;0.90;;;;;;;12.65;nan;99299.56;5039109;27;97437;-74
2023/11/15 10:11:37;;;;;;;2.28;1.15;;;;;;;12.68;nan;99304.66;5039868;27;97461;-74
2023/11/15 10:14:15;;;;;;;3.67;1.30;;;;;;;12.66;nan;99288.97;5033826;27;97338;-75
2023/11/15 10:16:48;;;;;;;1.55;0.98;;;;;;;12.67;nan;99316.13;5003508;28;96697;-74
2023/11/15 10:19:26;;;;;;;2.60;1.40;;;;;;;12.48;nan;99305.84;5041814;27;97249;-75
2023/11/15 10:22:14;;;;;;;3.10;0.90;;;;;;;12.61;nan;99298.06;5017934;27;97410;-75
2023/11/15 10:24:40;;;;;;;4.53;1.08;;;;;;;12.80;nan;99311.84;5036002;27;97388;-75
2023/11/15 10:27:14;;;;;;;2.72;1.15;;;;;;;12.94;nan;99308.38;5034179;27;96854;-76
2023/11/15 10:29:45;;;;;;;2.88;1.10;;;;;;;13.05;nan;99302.47;5042067;27;96831;-75
2023/11/15 10:32:11;;;;;;;2.08;0.75;;;;;;;12.96;nan;99290.72;5020437;27;98759;-84
2023/11/15 10:34:51;;;;;;;4.22;1.52;;;;;;;13.07;nan;99306.72;5030363;27;97877;-82
2023/11/15 10:37:18;;;;;;;2.78;1.25;;;;;;;13.03;nan;99322.78;5018401;27;97175;-83
2023/11/15 10:39:49;;;;;;;1.60;0.90;;;;;;;13.21;nan;99326.97;5019375;27;97310;-80
2023/11/15 10:42:18;;;;;;;4.32;1.13;;;;;;;12.98;nan;99298.53;5014032;28;98184;-74
2023/11/15 10:44:47;;;;;;;2.70;0.98;;;;;;;13.03;nan;99317.50;4999963;28;101098;-74
2023/11/15 10:47:19;;;;;;;5.55;1.20;;;;;;;13.08;nan;99300.50;5020756;27;96912;-73
2023/11/15 10:49:52;;;;;;;2.20;1.48;;;;;;;13.05;nan;99323.56;5009765;28;96881;-73
2023/11/15 10:52:20;;;;;;;2.70;1.13;;;;;;;13.12;nan;99324.91;5024368;27;97644;-82
2023/11/15 10:54:46;;;;;;;2.03;1.23;;;;;;;13.11;nan;99339.84;5000155;28;98107;-84
2023/11/15 10:57:15;;;;;;;2.97;1.45;;;;;;;13.08;nan;99333.91;5003117;27;97523;-82
2023/11/15 10:59:41;;;;;;;2.80;1.10;;;;;;;13.02;nan;99344.81;5003441;27;98268;-84
2023/11/15 11:02:09;;;;;;;1.63;0.98;;;;;;;12.99;nan;99330.03;5026130;27;98010;-84
2023/11/15 11:04:39;;;;;;;2.00;0.80;;;;;;;12.93;nan;99351.47;5009900;27;99965;-84
2023/11/15 11:07:15;;;;;;;4.03;1.15;;;;;;;12.95;nan;99346.13;5027464;27;99107;-84
2023/11/15 11:09:50;;;;;;;2.20;0.80;;;;;;;12.90;nan;99357.75;5025101;27;96861;-83
2023/11/15 11:12:20;;;;;;;1.60;0.80;;;;;;;12.75;nan;99344.66;5012750;27;100879;-83
2023/11/15 11:14:46;;;;;;;4.25;1.20;;;;;;;12.73;nan;99360.53;5016978;27;97346;-83
2023/11/15 11:17:32;;;;;;;2.40;1.17;;;;;;;12.75;nan;99378.91;5046550;27;96822;-83
2023/11/15 11:19:58;;;;;;;1.17;0.80;;;;;;;12.63;nan;99380.44;5027249;27;96904;-84
2023/11/15 11:22:25;;;;;;;1.90;0.80;;;;;;;12.60;nan;99357.78;5029689;27;98409;-85
2023/11/15 11:25:10;;;;;;;0.98;0.63;;;;;;;12.60;nan;99386.72;5029689;27;97142;-83
2023/11/15 11:27:56;;;;;;;2.65;0.65;;;;;;;12.67;nan;99395.13;5039935;27;97118;-83
2023/11/15 11:30:23;;;;;;;1.52;0.80;;;;;;;12.63;nan;99386.56;5021024;27;97226;-84
2023/11/15 11:32:50;;;;;;;2.30;1.20;;;;;;;12.39;nan;99354.59;5060304;27;97940;-85
2023/11/15 11:35:25;;;;;;;3.58;0.60;;;;;;;12.74;nan;99404.38;5015306;27;97827;-86
2023/11/15 11:37:53;;;;;;;4.78;1.27;;;;;;;12.79;nan;99404.09;5058080;27;97299;-87
2023/11/15 11:40:38;;;;;;;0.63;0.50;;;;;;;12.76;nan;99404.28;5005716;27;97183;-85
2023/11/15 11:43:23;;;;;;;1.42;0.90;;;;;;;12.81;nan;99404.88;5025963;27;97499;-83
2023/11/15 11:45:52;;;;;;;0.90;0.63;;;;;;;12.66;nan;99383.75;5035223;27;101095;-84
2023/11/15 11:48:23;;;;;;;0.88;0.60;;;;;;;12.59;nan;99385.00;5000085;27;97375;-84
2023/11/15 11:51:00;;;;;;;0.73;0.57;;;;;;;12.39;nan;99385.31;5030689;27;97797;-85